ADDS METAR Data INFO
IDs: Format: Raw Decoded Include TAF

Data at: 1928 UTC 19 Jul 2018

KSFO 191856Z 01009KT 10SM FEW013 BKN200 19/14 A2994 RMK AO2 SLP139 T01940139 $
KSFO 191756Z 02007KT 10SM FEW013 SCT200 18/14 A2996 RMK AO2 SLP144 T01830139 10189 20133 51001 $
KSFO 191656Z 03005KT 10SM FEW007 SCT011 SCT200 18/14 A2996 RMK AO2 SLP144 T01830139 $
KSFO 191640Z 05004KT 10SM FEW007 SCT011 18/14 A2996 RMK AO2 T01780139 $
KSFO 191631Z 05004KT 10SM FEW007 BKN011 18/14 A2996 RMK AO2 T01780139 $
KSFO 191556Z 03003KT 10SM FEW006 BKN008 BKN010 16/13 A2996 RMK AO2 SLP145 T01610133 $
KSFO 191456Z 00000KT 10SM FEW005 OVC008 14/13 A2995 RMK AO2 SLP143 T01440128 53008 $
KSFO 191356Z 17003KT 10SM FEW006 BKN008 16/12 A2994 RMK AO2 SLP139 T01560122 $
KSFO 191256Z 29004KT 10SM FEW005 SCT008 BKN010 14/13 A2993 RMK AO2 SLP136 T01440128 $
KSFO 191156Z 26004KT 10SM FEW004 BKN010 13/12 A2993 RMK AO2 SLP135 T01330122 10144 20128 53001 $
KSFO 191056Z 29005KT 10SM FEW004 BKN010 13/12 A2993 RMK AO2 SLP134 T01280122 $
KSFO 190956Z 28006KT 10SM FEW004 13/12 A2992 RMK AO2 SLP133 T01280122 $
KSFO 190856Z 29008KT 10SM FEW004 13/12 A2993 RMK AO2 SLP133 T01280122 56006 $
KSFO 190756Z 30008KT 10SM FEW004 13/12 A2993 RMK AO2 SLP136 T01330122 402170128
KSFO 190656Z 29008KT 10SM FEW005 14/12 A2994 RMK AO2 SLP137 T01440122
KSFO 190556Z 30010KT 10SM FEW005 14/13 A2995 RMK AO2 SLP140 T01440128 10194 20144 51012
KSFO 190456Z 30009KT 10SM FEW004 15/13 A2994 RMK AO2 SLP138 T01500128
KSFO 190356Z 30011KT 10SM FEW004 SCT180 15/12 A2992 RMK AO2 SLP132 T01500122
KSFO 190256Z 30017KT 10SM FEW005 SCT200 15/12 A2991 RMK AO2 SLP128 T01500122 56004
KSFO 190156Z 30018KT 10SM FEW005 SCT200 16/12 A2991 RMK AO2 SLP129 T01610122
KSFO 190056Z 30019KT 10SM FEW006 SCT200 18/13 A2991 RMK AO2 PK WND 29026/0034 SLP128 T01780128
KSFO 182356Z 30019KT 10SM FEW006 BKN200 19/13 A2992 RMK AO2 SLP133 T01940128 10217 20183 56015
KSFO 182256Z 30018KT 10SM FEW007 BKN200 21/13 A2993 RMK AO2 SLP135 T02060133
KSFO 182156Z 31018KT 10SM R28R/4000VP6000FT FEW008 BKN200 21/13 A2995 RMK AO2 SLP141 T02110133
KSFO 182056Z 30016KT 10SM FEW010 BKN200 22/13 A2997 RMK AO2 SLP147 T02170133 58009
KSFO 181956Z 32016KT 10SM FEW010 BKN200 20/13 A2998 RMK AO2 SLP151 T02000133
KSFO 181856Z 02006KT 10SM FEW010 BKN200 19/14 A2999 RMK AO2 SLP155 T01890139
KSFO 181756Z 35008KT 10SM FEW011 FEW200 19/13 A2999 RMK AO2 SLP156 T01890133 10189 20128 50001
KSFO 181656Z 34006KT 10SM FEW009 SCT012 17/13 A3000 RMK AO2 SLP160 T01720128 $
KSFO 181556Z 34004KT 10SM FEW005 SCT009 16/12 A3000 RMK AO2 SLP158 T01610122 $
KSFO 181456Z 31006KT 10SM FEW005 OVC009 15/12 A2999 RMK AO2 SLP156 T01500122 53006 $
KSFO 181356Z 29006KT 10SM FEW004 BKN007 OVC010 13/12 A2998 RMK AO2 SLP152 T01330117 $
KSFO 181256Z 29005KT 10SM FEW004 BKN007 OVC010 14/11 A2998 RMK AO2 SLP150 T01390111 $
KSFO 181156Z 29003KT 10SM FEW005 SCT007 BKN010 13/12 A2997 RMK AO2 SLP149 T01280117 10139 20128 57003 $
KSFO 181056Z 29006KT 10SM FEW004 BKN007 OVC010 13/12 A2998 RMK AO2 SLP150 T01330117
KSFO 180956Z 29007KT 10SM FEW004 BKN010 13/12 A2998 RMK AO2 SLP151 T01330117
KSFO 180856Z 30008KT 10SM FEW005 13/12 A2998 RMK AO2 SLP152 T01330117 51003
KSFO 180756Z 30009KT 10SM FEW004 13/12 A2998 RMK AO2 SLP151 T01330117 401940128